sensor_id;sensor_type;location;lat;lon;timestamp;P1;durP1;ratioP1;P2;durP2;ratioP2
23282;SDS011;11810;51.178;3.878;2023-08-06T00:00:09;14.93;;;5.03;;
23282;SDS011;11810;51.178;3.878;2023-08-06T00:02:35;17.58;;;5.70;;
23282;SDS011;11810;51.178;3.878;2023-08-06T00:05:01;18.20;;;5.95;;
23282;SDS011;11810;51.178;3.878;2023-08-06T00:07:28;14.27;;;5.07;;
23282;SDS011;11810;51.178;3.878;2023-08-06T00:09:54;11.00;;;5.82;;
23282;SDS011;11810;51.178;3.878;2023-08-06T00:12:19;14.93;;;6.45;;
23282;SDS011;11810;51.178;3.878;2023-08-06T00:14:49;15.90;;;5.60;;
23282;SDS011;11810;51.178;3.878;2023-08-06T00:17:16;11.23;;;5.72;;
23282;SDS011;11810;51.178;3.878;2023-08-06T00:19:42;12.77;;;6.35;;
23282;SDS011;11810;51.178;3.878;2023-08-06T00:22:08;18.48;;;7.15;;
23282;SDS011;11810;51.178;3.878;2023-08-06T00:24:34;18.00;;;7.32;;
23282;SDS011;11810;51.178;3.878;2023-08-06T00:27:00;14.70;;;6.57;;
23282;SDS011;11810;51.178;3.878;2023-08-06T00:29:26;22.27;;;6.85;;
23282;SDS011;11810;51.178;3.878;2023-08-06T00:31:52;14.60;;;7.03;;
23282;SDS011;11810;51.178;3.878;2023-08-06T00:34:18;12.23;;;6.80;;
23282;SDS011;11810;51.178;3.878;2023-08-06T00:36:44;18.55;;;7.65;;
23282;SDS011;11810;51.178;3.878;2023-08-06T00:39:10;13.15;;;6.85;;
23282;SDS011;11810;51.178;3.878;2023-08-06T00:41:36;11.63;;;6.80;;
23282;SDS011;11810;51.178;3.878;2023-08-06T00:44:02;13.70;;;7.30;;
23282;SDS011;11810;51.178;3.878;2023-08-06T00:46:28;13.23;;;7.15;;
23282;SDS011;11810;51.178;3.878;2023-08-06T00:48:55;16.13;;;6.90;;
23282;SDS011;11810;51.178;3.878;2023-08-06T00:51:21;23.00;;;6.95;;
23282;SDS011;11810;51.178;3.878;2023-08-06T00:53:48;16.10;;;7.00;;
23282;SDS011;11810;51.178;3.878;2023-08-06T00:56:15;12.57;;;7.15;;
23282;SDS011;11810;51.178;3.878;2023-08-06T00:58:41;11.95;;;6.82;;
23282;SDS011;11810;51.178;3.878;2023-08-06T01:01:07;17.80;;;6.70;;
23282;SDS011;11810;51.178;3.878;2023-08-06T01:03:33;13.93;;;7.40;;
23282;SDS011;11810;51.178;3.878;2023-08-06T01:05:59;15.65;;;7.30;;
23282;SDS011;11810;51.178;3.878;2023-08-06T01:13:48;15.02;;;6.85;;
23282;SDS011;11810;51.178;3.878;2023-08-06T01:16:21;14.25;;;7.65;;
23282;SDS011;11810;51.178;3.878;2023-08-06T01:18:49;16.88;;;8.13;;
23282;SDS011;11810;51.178;3.878;2023-08-06T01:21:15;13.30;;;8.18;;
23282;SDS011;11810;51.178;3.878;2023-08-06T01:23:42;21.92;;;8.38;;
23282;SDS011;11810;51.178;3.878;2023-08-06T01:28:44;15.13;;;8.25;;
23282;SDS011;11810;51.178;3.878;2023-08-06T01:31:22;14.50;;;8.20;;
23282;SDS011;11810;51.178;3.878;2023-08-06T01:33:52;18.30;;;8.05;;
23282;SDS011;11810;51.178;3.878;2023-08-06T01:36:19;15.48;;;7.65;;
23282;SDS011;11810;51.178;3.878;2023-08-06T01:38:47;20.42;;;9.13;;
23282;SDS011;11810;51.178;3.878;2023-08-06T01:41:13;17.13;;;8.90;;
23282;SDS011;11810;51.178;3.878;2023-08-06T01:43:38;17.20;;;8.75;;
23282;SDS011;11810;51.178;3.878;2023-08-06T01:46:04;19.65;;;8.77;;
23282;SDS011;11810;51.178;3.878;2023-08-06T01:48:30;18.77;;;8.80;;
23282;SDS011;11810;51.178;3.878;2023-08-06T01:50:56;23.45;;;10.07;;
23282;SDS011;11810;51.178;3.878;2023-08-06T01:53:22;18.95;;;9.88;;
23282;SDS011;11810;51.178;3.878;2023-08-06T01:55:48;19.42;;;10.25;;
23282;SDS011;11810;51.178;3.878;2023-08-06T01:58:15;34.35;;;10.25;;
23282;SDS011;11810;51.178;3.878;2023-08-06T02:00:41;10.98;;;6.45;;
23282;SDS011;11810;51.178;3.878;2023-08-06T02:03:07;12.45;;;7.53;;
23282;SDS011;11810;51.178;3.878;2023-08-06T02:05:33;11.90;;;7.88;;
23282;SDS011;11810;51.178;3.878;2023-08-06T02:07:58;16.65;;;8.70;;
23282;SDS011;11810;51.178;3.878;2023-08-06T02:10:24;17.45;;;9.50;;
23282;SDS011;11810;51.178;3.878;2023-08-06T02:12:50;18.80;;;10.00;;
23282;SDS011;11810;51.178;3.878;2023-08-06T02:15:16;24.52;;;10.98;;
23282;SDS011;11810;51.178;3.878;2023-08-06T02:17:42;20.48;;;10.07;;
23282;SDS011;11810;51.178;3.878;2023-08-06T02:20:08;17.58;;;9.25;;
23282;SDS011;11810;51.178;3.878;2023-08-06T02:22:34;13.88;;;8.32;;
23282;SDS011;11810;51.178;3.878;2023-08-06T02:25:00;15.20;;;7.38;;
23282;SDS011;11810;51.178;3.878;2023-08-06T02:27:26;14.30;;;8.10;;
23282;SDS011;11810;51.178;3.878;2023-08-06T02:29:52;15.65;;;7.68;;
23282;SDS011;11810;51.178;3.878;2023-08-06T02:32:19;12.88;;;5.97;;
23282;SDS011;11810;51.178;3.878;2023-08-06T02:34:45;9.98;;;4.47;;
23282;SDS011;11810;51.178;3.878;2023-08-06T02:37:11;8.18;;;3.45;;
23282;SDS011;11810;51.178;3.878;2023-08-06T02:39:37;10.68;;;3.90;;
23282;SDS011;11810;51.178;3.878;2023-08-06T02:42:08;12.85;;;3.45;;
23282;SDS011;11810;51.178;3.878;2023-08-06T02:44:34;10.88;;;3.17;;
23282;SDS011;11810;51.178;3.878;2023-08-06T02:47:01;15.10;;;3.72;;
23282;SDS011;11810;51.178;3.878;2023-08-06T02:49:26;13.73;;;3.50;;
23282;SDS011;11810;51.178;3.878;2023-08-06T02:51:52;12.10;;;3.13;;
23282;SDS011;11810;51.178;3.878;2023-08-06T02:54:18;8.68;;;2.80;;
23282;SDS011;11810;51.178;3.878;2023-08-06T02:56:45;16.25;;;3.97;;
23282;SDS011;11810;51.178;3.878;2023-08-06T02:59:15;0.15;;;0.15;;
23282;SDS011;11810;51.178;3.878;2023-08-06T03:01:41;0.30;;;0.30;;
23282;SDS011;11810;51.178;3.878;2023-08-06T03:04:07;0.10;;;0.10;;
23282;SDS011;11810;51.178;3.878;2023-08-06T03:06:33;0.40;;;0.40;;
23282;SDS011;11810;51.178;3.878;2023-08-06T03:08:59;2.38;;;1.85;;
23282;SDS011;11810;51.178;3.878;2023-08-06T03:11:25;0.40;;;0.40;;
23282;SDS011;11810;51.178;3.878;2023-08-06T03:13:50;0.22;;;0.22;;
23282;SDS011;11810;51.178;3.878;2023-08-06T03:16:16;0.10;;;0.10;;
23282;SDS011;11810;51.178;3.878;2023-08-06T03:18:42;0.68;;;0.68;;
23282;SDS011;11810;51.178;3.878;2023-08-06T03:21:08;0.10;;;0.10;;
23282;SDS011;11810;51.178;3.878;2023-08-06T03:23:34;1.85;;;1.55;;
23282;SDS011;11810;51.178;3.878;2023-08-06T03:26:03;2.58;;;2.15;;
23282;SDS011;11810;51.178;3.878;2023-08-06T03:28:29;0.17;;;0.17;;
23282;SDS011;11810;51.178;3.878;2023-08-06T03:30:59;1.52;;;1.20;;
23282;SDS011;11810;51.178;3.878;2023-08-06T03:33:28;0.10;;;0.10;;
23282;SDS011;11810;51.178;3.878;2023-08-06T03:35:54;0.10;;;0.10;;
23282;SDS011;11810;51.178;3.878;2023-08-06T03:38:20;0.10;;;0.10;;
23282;SDS011;11810;51.178;3.878;2023-08-06T03:40:46;0.45;;;0.45;;
23282;SDS011;11810;51.178;3.878;2023-08-06T03:43:12;0.10;;;0.10;;
23282;SDS011;11810;51.178;3.878;2023-08-06T03:45:38;0.10;;;0.10;;
23282;SDS011;11810;51.178;3.878;2023-08-06T03:48:05;0.10;;;0.10;;
23282;SDS011;11810;51.178;3.878;2023-08-06T03:50:31;0.10;;;0.10;;
23282;SDS011;11810;51.178;3.878;2023-08-06T03:52:57;0.40;;;0.40;;
23282;SDS011;11810;51.178;3.878;2023-08-06T03:55:23;0.10;;;0.10;;
23282;SDS011;11810;51.178;3.878;2023-08-06T03:57:48;1.85;;;1.33;;
23282;SDS011;11810;51.178;3.878;2023-08-06T04:00:14;0.20;;;0.20;;
23282;SDS011;11810;51.178;3.878;2023-08-06T04:02:41;0.17;;;0.17;;
23282;SDS011;11810;51.178;3.878;2023-08-06T04:05:07;1.25;;;1.08;;
23282;SDS011;11810;51.178;3.878;2023-08-06T04:07:33;12.25;;;3.25;;
23282;SDS011;11810;51.178;3.878;2023-08-06T04:10:03;0.32;;;0.32;;
23282;SDS011;11810;51.178;3.878;2023-08-06T04:12:30;1.35;;;1.35;;
23282;SDS011;11810;51.178;3.878;2023-08-06T04:14:58;0.80;;;0.30;;
23282;SDS011;11810;51.178;3.878;2023-08-06T04:17:24;0.25;;;0.25;;
23282;SDS011;11810;51.178;3.878;2023-08-06T04:19:50;0.10;;;0.10;;
23282;SDS011;11810;51.178;3.878;2023-08-06T04:22:17;1.10;;;1.10;;
23282;SDS011;11810;51.178;3.878;2023-08-06T04:24:44;0.10;;;0.10;;
23282;SDS011;11810;51.178;3.878;2023-08-06T04:27:10;0.68;;;0.68;;
23282;SDS011;11810;51.178;3.878;2023-08-06T04:29:37;0.10;;;0.10;;
23282;SDS011;11810;51.178;3.878;2023-08-06T04:32:04;0.10;;;0.10;;
23282;SDS011;11810;51.178;3.878;2023-08-06T04:34:31;0.10;;;0.10;;
23282;SDS011;11810;51.178;3.878;2023-08-06T04:36:58;0.10;;;0.10;;
23282;SDS011;11810;51.178;3.878;2023-08-06T04:39:25;0.10;;;0.10;;
23282;SDS011;11810;51.178;3.878;2023-08-06T04:41:51;0.20;;;0.20;;
23282;SDS011;11810;51.178;3.878;2023-08-06T04:44:17;4.47;;;0.82;;
23282;SDS011;11810;51.178;3.878;2023-08-06T04:46:43;0.00;;;0.00;;
23282;SDS011;11810;51.178;3.878;2023-08-06T04:49:09;0.10;;;0.10;;
23282;SDS011;11810;51.178;3.878;2023-08-06T04:51:35;0.68;;;0.68;;
23282;SDS011;11810;51.178;3.878;2023-08-06T04:54:01;0.65;;;0.65;;
23282;SDS011;11810;51.178;3.878;2023-08-06T04:56:27;0.35;;;0.35;;
23282;SDS011;11810;51.178;3.878;2023-08-06T04:58:53;0.43;;;0.43;;
23282;SDS011;11810;51.178;3.878;2023-08-06T05:01:19;0.45;;;0.45;;
23282;SDS011;11810;51.178;3.878;2023-08-06T05:03:46;0.10;;;0.10;;
23282;SDS011;11810;51.178;3.878;2023-08-06T05:06:12;0.57;;;0.57;;
23282;SDS011;11810;51.178;3.878;2023-08-06T05:08:38;0.10;;;0.10;;
23282;SDS011;11810;51.178;3.878;2023-08-06T05:11:04;0.52;;;0.52;;
23282;SDS011;11810;51.178;3.878;2023-08-06T05:13:30;0.10;;;0.10;;
23282;SDS011;11810;51.178;3.878;2023-08-06T05:15:56;0.20;;;0.20;;
23282;SDS011;11810;51.178;3.878;2023-08-06T05:18:23;0.35;;;0.35;;
23282;SDS011;11810;51.178;3.878;2023-08-06T05:20:49;0.10;;;0.10;;
23282;SDS011;11810;51.178;3.878;2023-08-06T05:23:15;0.10;;;0.10;;
23282;SDS011;11810;51.178;3.878;2023-08-06T05:25:42;0.30;;;0.30;;
23282;SDS011;11810;51.178;3.878;2023-08-06T05:28:07;0.10;;;0.10;;
23282;SDS011;11810;51.178;3.878;2023-08-06T05:30:33;17.08;;;1.27;;
23282;SDS011;11810;51.178;3.878;2023-08-06T05:33:03;0.98;;;0.65;;
23282;SDS011;11810;51.178;3.878;2023-08-06T05:35:29;2.78;;;0.50;;
23282;SDS011;11810;51.178;3.878;2023-08-06T05:37:55;0.52;;;0.52;;
23282;SDS011;11810;51.178;3.878;2023-08-06T05:40:21;0.40;;;0.40;;
23282;SDS011;11810;51.178;3.878;2023-08-06T05:42:47;9.10;;;1.95;;
23282;SDS011;11810;51.178;3.878;2023-08-06T05:45:13;0.32;;;0.32;;
23282;SDS011;11810;51.178;3.878;2023-08-06T05:47:39;2.90;;;1.05;;
23282;SDS011;11810;51.178;3.878;2023-08-06T05:50:05;0.32;;;0.32;;
23282;SDS011;11810;51.178;3.878;2023-08-06T05:52:32;0.30;;;0.30;;
23282;SDS011;11810;51.178;3.878;2023-08-06T05:54:57;0.55;;;0.55;;
23282;SDS011;11810;51.178;3.878;2023-08-06T05:57:23;0.10;;;0.10;;
23282;SDS011;11810;51.178;3.878;2023-08-06T05:59:49;0.17;;;0.17;;
23282;SDS011;11810;51.178;3.878;2023-08-06T06:02:15;0.47;;;0.47;;
23282;SDS011;11810;51.178;3.878;2023-08-06T06:04:43;0.60;;;0.60;;
23282;SDS011;11810;51.178;3.878;2023-08-06T06:07:09;1.65;;;0.77;;
23282;SDS011;11810;51.178;3.878;2023-08-06T06:09:35;0.20;;;0.20;;
23282;SDS011;11810;51.178;3.878;2023-08-06T06:12:01;6.93;;;1.00;;
23282;SDS011;11810;51.178;3.878;2023-08-06T06:14:27;0.10;;;0.10;;
23282;SDS011;11810;51.178;3.878;2023-08-06T06:16:53;18.35;;;3.55;;
23282;SDS011;11810;51.178;3.878;2023-08-06T06:19:19;14.45;;;2.42;;
23282;SDS011;11810;51.178;3.878;2023-08-06T06:21:45;12.50;;;2.25;;
23282;SDS011;11810;51.178;3.878;2023-08-06T06:24:11;15.77;;;2.25;;
23282;SDS011;11810;51.178;3.878;2023-08-06T06:26:38;11.85;;;1.98;;
23282;SDS011;11810;51.178;3.878;2023-08-06T06:29:04;14.52;;;2.40;;
23282;SDS011;11810;51.178;3.878;2023-08-06T06:31:30;8.18;;;2.15;;
23282;SDS011;11810;51.178;3.878;2023-08-06T06:33:56;17.40;;;1.88;;
23282;SDS011;11810;51.178;3.878;2023-08-06T06:36:22;15.68;;;1.90;;
23282;SDS011;11810;51.178;3.878;2023-08-06T06:38:48;16.70;;;1.95;;
23282;SDS011;11810;51.178;3.878;2023-08-06T06:41:14;13.77;;;2.20;;
23282;SDS011;11810;51.178;3.878;2023-08-06T06:43:40;16.75;;;2.65;;
23282;SDS011;11810;51.178;3.878;2023-08-06T06:46:07;12.85;;;2.53;;
23282;SDS011;11810;51.178;3.878;2023-08-06T06:48:33;12.27;;;2.40;;
23282;SDS011;11810;51.178;3.878;2023-08-06T06:50:59;20.88;;;2.40;;
23282;SDS011;11810;51.178;3.878;2023-08-06T06:53:25;21.77;;;2.88;;
23282;SDS011;11810;51.178;3.878;2023-08-06T06:55:54;10.70;;;2.38;;
23282;SDS011;11810;51.178;3.878;2023-08-06T06:58:20;20.20;;;2.78;;
23282;SDS011;11810;51.178;3.878;2023-08-06T07:00:47;14.50;;;2.78;;
23282;SDS011;11810;51.178;3.878;2023-08-06T07:03:14;12.27;;;2.15;;
23282;SDS011;11810;51.178;3.878;2023-08-06T07:05:40;16.98;;;2.70;;
23282;SDS011;11810;51.178;3.878;2023-08-06T07:08:07;12.05;;;1.83;;
23282;SDS011;11810;51.178;3.878;2023-08-06T07:10:33;14.23;;;2.45;;
23282;SDS011;11810;51.178;3.878;2023-08-06T07:12:59;13.25;;;2.85;;
23282;SDS011;11810;51.178;3.878;2023-08-06T07:15:25;8.52;;;2.05;;
23282;SDS011;11810;51.178;3.878;2023-08-06T07:17:51;11.07;;;2.15;;
23282;SDS011;11810;51.178;3.878;2023-08-06T07:20:17;15.45;;;2.25;;
23282;SDS011;11810;51.178;3.878;2023-08-06T07:22:43;11.38;;;2.20;;
23282;SDS011;11810;51.178;3.878;2023-08-06T07:25:09;13.90;;;2.25;;
23282;SDS011;11810;51.178;3.878;2023-08-06T07:27:36;10.85;;;1.95;;
23282;SDS011;11810;51.178;3.878;2023-08-06T07:30:02;10.65;;;2.13;;
23282;SDS011;11810;51.178;3.878;2023-08-06T07:32:30;9.23;;;2.13;;
23282;SDS011;11810;51.178;3.878;2023-08-06T07:34:56;10.48;;;2.50;;
23282;SDS011;11810;51.178;3.878;2023-08-06T07:37:25;6.88;;;1.58;;
23282;SDS011;11810;51.178;3.878;2023-08-06T07:39:53;16.15;;;1.98;;
23282;SDS011;11810;51.178;3.878;2023-08-06T07:42:20;11.90;;;1.90;;
23282;SDS011;11810;51.178;3.878;2023-08-06T07:44:53;11.80;;;2.13;;
23282;SDS011;11810;51.178;3.878;2023-08-06T07:47:20;9.93;;;2.45;;
23282;SDS011;11810;51.178;3.878;2023-08-06T07:49:46;8.75;;;1.83;;
23282;SDS011;11810;51.178;3.878;2023-08-06T07:52:12;10.80;;;1.98;;
23282;SDS011;11810;51.178;3.878;2023-08-06T07:54:38;11.60;;;2.55;;
23282;SDS011;11810;51.178;3.878;2023-08-06T07:57:04;12.70;;;2.30;;
23282;SDS011;11810;51.178;3.878;2023-08-06T07:59:30;6.60;;;2.03;;
23282;SDS011;11810;51.178;3.878;2023-08-06T08:01:57;14.80;;;2.00;;
23282;SDS011;11810;51.178;3.878;2023-08-06T08:04:23;17.95;;;2.55;;
23282;SDS011;11810;51.178;3.878;2023-08-06T08:06:49;13.32;;;2.10;;
23282;SDS011;11810;51.178;3.878;2023-08-06T08:09:15;11.57;;;2.25;;
23282;SDS011;11810;51.178;3.878;2023-08-06T08:11:41;14.98;;;2.40;;
23282;SDS011;11810;51.178;3.878;2023-08-06T08:14:07;9.20;;;2.03;;
23282;SDS011;11810;51.178;3.878;2023-08-06T08:16:33;16.38;;;2.47;;
23282;SDS011;11810;51.178;3.878;2023-08-06T08:18:59;16.40;;;2.85;;
23282;SDS011;11810;51.178;3.878;2023-08-06T08:21:25;13.88;;;2.72;;
23282;SDS011;11810;51.178;3.878;2023-08-06T08:23:51;15.80;;;3.47;;
23282;SDS011;11810;51.178;3.878;2023-08-06T08:26:17;11.23;;;2.20;;
23282;SDS011;11810;51.178;3.878;2023-08-06T08:28:43;11.63;;;1.77;;
23282;SDS011;11810;51.178;3.878;2023-08-06T08:31:10;14.70;;;2.80;;
23282;SDS011;11810;51.178;3.878;2023-08-06T08:33:37;16.33;;;2.10;;
23282;SDS011;11810;51.178;3.878;2023-08-06T08:36:03;15.95;;;2.67;;
23282;SDS011;11810;51.178;3.878;2023-08-06T08:38:29;9.60;;;2.22;;
23282;SDS011;11810;51.178;3.878;2023-08-06T08:40:55;17.92;;;2.88;;
23282;SDS011;11810;51.178;3.878;2023-08-06T08:43:21;15.80;;;2.10;;
23282;SDS011;11810;51.178;3.878;2023-08-06T08:45:51;10.48;;;2.38;;
23282;SDS011;11810;51.178;3.878;2023-08-06T08:48:18;19.10;;;3.47;;
23282;SDS011;11810;51.178;3.878;2023-08-06T08:50:45;12.85;;;2.30;;
23282;SDS011;11810;51.178;3.878;2023-08-06T08:53:15;13.10;;;2.70;;
23282;SDS011;11810;51.178;3.878;2023-08-06T08:55:46;15.32;;;3.03;;
23282;SDS011;11810;51.178;3.878;2023-08-06T08:58:13;15.70;;;2.42;;
23282;SDS011;11810;51.178;3.878;2023-08-06T09:00:43;17.90;;;2.70;;
23282;SDS011;11810;51.178;3.878;2023-08-06T09:03:13;22.48;;;3.30;;
23282;SDS011;11810;51.178;3.878;2023-08-06T09:05:43;8.70;;;1.80;;
23282;SDS011;11810;51.178;3.878;2023-08-06T09:08:11;11.73;;;3.33;;
23282;SDS011;11810;51.178;3.878;2023-08-06T09:10:41;18.58;;;3.25;;
23282;SDS011;11810;51.178;3.878;2023-08-06T09:13:09;17.63;;;2.45;;
23282;SDS011;11810;51.178;3.878;2023-08-06T09:15:37;14.68;;;2.38;;
23282;SDS011;11810;51.178;3.878;2023-08-06T09:18:12;17.42;;;2.25;;
23282;SDS011;11810;51.178;3.878;2023-08-06T09:20:38;13.50;;;3.28;;
23282;SDS011;11810;51.178;3.878;2023-08-06T09:23:08;13.10;;;2.90;;
23282;SDS011;11810;51.178;3.878;2023-08-06T09:25:36;12.77;;;1.88;;
23282;SDS011;11810;51.178;3.878;2023-08-06T09:28:07;18.80;;;3.08;;
23282;SDS011;11810;51.178;3.878;2023-08-06T09:30:34;19.38;;;2.92;;
23282;SDS011;11810;51.178;3.878;2023-08-06T09:33:01;21.60;;;2.17;;
23282;SDS011;11810;51.178;3.878;2023-08-06T09:35:31;19.67;;;3.28;;
23282;SDS011;11810;51.178;3.878;2023-08-06T09:38:06;18.05;;;2.65;;
23282;SDS011;11810;51.178;3.878;2023-08-06T09:40:33;8.60;;;2.10;;
23282;SDS011;11810;51.178;3.878;2023-08-06T09:43:00;19.33;;;3.10;;
23282;SDS011;11810;51.178;3.878;2023-08-06T09:45:33;6.68;;;1.42;;
23282;SDS011;11810;51.178;3.878;2023-08-06T09:48:04;7.63;;;2.05;;
23282;SDS011;11810;51.178;3.878;2023-08-06T09:50:32;11.75;;;2.35;;
23282;SDS011;11810;51.178;3.878;2023-08-06T09:53:01;9.40;;;1.70;;
23282;SDS011;11810;51.178;3.878;2023-08-06T09:55:28;13.02;;;1.92;;
23282;SDS011;11810;51.178;3.878;2023-08-06T09:57:54;10.68;;;1.98;;
23282;SDS011;11810;51.178;3.878;2023-08-06T10:00:22;14.68;;;2.50;;
23282;SDS011;11810;51.178;3.878;2023-08-06T10:02:48;12.85;;;2.78;;
23282;SDS011;11810;51.178;3.878;2023-08-06T10:05:16;17.15;;;3.35;;
23282;SDS011;11810;51.178;3.878;2023-08-06T10:07:43;13.82;;;2.60;;
23282;SDS011;11810;51.178;3.878;2023-08-06T10:10:11;15.38;;;2.55;;
23282;SDS011;11810;51.178;3.878;2023-08-06T10:12:41;8.50;;;2.00;;
23282;SDS011;11810;51.178;3.878;2023-08-06T10:15:12;11.57;;;1.85;;
23282;SDS011;11810;51.178;3.878;2023-08-06T10:17:40;11.82;;;2.08;;
23282;SDS011;11810;51.178;3.878;2023-08-06T10:20:08;6.57;;;1.52;;
23282;SDS011;11810;51.178;3.878;2023-08-06T10:22:35;6.55;;;1.75;;
23282;SDS011;11810;51.178;3.878;2023-08-06T10:25:01;15.73;;;2.30;;
23282;SDS011;11810;51.178;3.878;2023-08-06T10:30:28;11.63;;;2.65;;
23282;SDS011;11810;51.178;3.878;2023-08-06T10:32:56;16.38;;;2.30;;
23282;SDS011;11810;51.178;3.878;2023-08-06T10:35:36;18.52;;;2.47;;
23282;SDS011;11810;51.178;3.878;2023-08-06T10:38:26;11.55;;;2.42;;
23282;SDS011;11810;51.178;3.878;2023-08-06T10:45:53;24.13;;;2.63;;
23282;SDS011;11810;51.178;3.878;2023-08-06T10:51:04;11.93;;;2.38;;
23282;SDS011;11810;51.178;3.878;2023-08-06T10:53:34;13.10;;;2.33;;
23282;SDS011;11810;51.178;3.878;2023-08-06T10:56:01;15.13;;;2.22;;
23282;SDS011;11810;51.178;3.878;2023-08-06T10:58:33;10.25;;;1.67;;
23282;SDS011;11810;51.178;3.878;2023-08-06T11:00:59;8.15;;;1.63;;
23282;SDS011;11810;51.178;3.878;2023-08-06T11:03:26;4.82;;;0.95;;
23282;SDS011;11810;51.178;3.878;2023-08-06T11:05:53;4.30;;;1.08;;
23282;SDS011;11810;51.178;3.878;2023-08-06T11:08:29;4.80;;;1.00;;
23282;SDS011;11810;51.178;3.878;2023-08-06T11:11:08;6.50;;;1.10;;
23282;SDS011;11810;51.178;3.878;2023-08-06T11:13:42;8.60;;;1.33;;
23282;SDS011;11810;51.178;3.878;2023-08-06T11:16:11;8.43;;;1.23;;
23282;SDS011;11810;51.178;3.878;2023-08-06T11:18:42;8.30;;;1.48;;
23282;SDS011;11810;51.178;3.878;2023-08-06T11:21:08;12.95;;;1.85;;
23282;SDS011;11810;51.178;3.878;2023-08-06T11:23:35;13.57;;;2.45;;
23282;SDS011;11810;51.178;3.878;2023-08-06T11:26:01;13.65;;;2.05;;
23282;SDS011;11810;51.178;3.878;2023-08-06T11:28:28;14.13;;;2.10;;
23282;SDS011;11810;51.178;3.878;2023-08-06T11:30:54;12.85;;;2.50;;
23282;SDS011;11810;51.178;3.878;2023-08-06T11:33:25;10.90;;;2.20;;
23282;SDS011;11810;51.178;3.878;2023-08-06T11:35:51;17.48;;;2.58;;
23282;SDS011;11810;51.178;3.878;2023-08-06T11:38:22;18.95;;;2.40;;
23282;SDS011;11810;51.178;3.878;2023-08-06T11:40:51;15.23;;;2.42;;
23282;SDS011;11810;51.178;3.878;2023-08-06T11:43:18;14.80;;;2.20;;
23282;SDS011;11810;51.178;3.878;2023-08-06T11:45:47;15.80;;;2.03;;
23282;SDS011;11810;51.178;3.878;2023-08-06T11:48:19;12.15;;;2.30;;
23282;SDS011;11810;51.178;3.878;2023-08-06T11:50:45;13.80;;;2.13;;
23282;SDS011;11810;51.178;3.878;2023-08-06T11:53:14;15.82;;;2.22;;
23282;SDS011;11810;51.178;3.878;2023-08-06T11:55:40;13.45;;;1.63;;
23282;SDS011;11810;51.178;3.878;2023-08-06T11:58:08;6.97;;;1.42;;
23282;SDS011;11810;51.178;3.878;2023-08-06T12:00:36;12.43;;;1.63;;
23282;SDS011;11810;51.178;3.878;2023-08-06T12:03:04;11.35;;;2.03;;
23282;SDS011;11810;51.178;3.878;2023-08-06T12:05:30;9.35;;;1.52;;
23282;SDS011;11810;51.178;3.878;2023-08-06T12:08:00;7.22;;;1.40;;
23282;SDS011;11810;51.178;3.878;2023-08-06T12:10:28;10.48;;;2.10;;
23282;SDS011;11810;51.178;3.878;2023-08-06T12:12:55;9.60;;;2.03;;
23282;SDS011;11810;51.178;3.878;2023-08-06T12:15:21;10.73;;;2.15;;
23282;SDS011;11810;51.178;3.878;2023-08-06T12:17:49;15.93;;;2.25;;
23282;SDS011;11810;51.178;3.878;2023-08-06T12:20:15;13.80;;;1.67;;
23282;SDS011;11810;51.178;3.878;2023-08-06T12:22:41;14.13;;;2.38;;
23282;SDS011;11810;51.178;3.878;2023-08-06T12:25:07;15.00;;;2.38;;
23282;SDS011;11810;51.178;3.878;2023-08-06T12:27:37;10.88;;;2.03;;
23282;SDS011;11810;51.178;3.878;2023-08-06T12:30:04;9.50;;;2.13;;
23282;SDS011;11810;51.178;3.878;2023-08-06T12:32:30;10.02;;;2.28;;
23282;SDS011;11810;51.178;3.878;2023-08-06T12:34:57;12.13;;;2.40;;
23282;SDS011;11810;51.178;3.878;2023-08-06T12:37:24;12.85;;;2.65;;
23282;SDS011;11810;51.178;3.878;2023-08-06T12:39:50;12.50;;;2.38;;
23282;SDS011;11810;51.178;3.878;2023-08-06T12:42:16;16.75;;;2.92;;
23282;SDS011;11810;51.178;3.878;2023-08-06T12:44:42;13.05;;;2.75;;
23282;SDS011;11810;51.178;3.878;2023-08-06T12:47:08;14.15;;;3.20;;
23282;SDS011;11810;51.178;3.878;2023-08-06T12:49:34;18.80;;;2.78;;
23282;SDS011;11810;51.178;3.878;2023-08-06T12:52:00;11.30;;;2.35;;
23282;SDS011;11810;51.178;3.878;2023-08-06T12:54:27;19.65;;;2.88;;
23282;SDS011;11810;51.178;3.878;2023-08-06T12:56:53;14.23;;;2.50;;
23282;SDS011;11810;51.178;3.878;2023-08-06T12:59:20;12.68;;;2.30;;
23282;SDS011;11810;51.178;3.878;2023-08-06T13:01:46;15.57;;;2.70;;
23282;SDS011;11810;51.178;3.878;2023-08-06T13:04:13;17.50;;;2.20;;
23282;SDS011;11810;51.178;3.878;2023-08-06T13:06:39;10.10;;;2.35;;
23282;SDS011;11810;51.178;3.878;2023-08-06T13:09:06;17.52;;;2.72;;
23282;SDS011;11810;51.178;3.878;2023-08-06T13:11:33;21.65;;;2.70;;
23282;SDS011;11810;51.178;3.878;2023-08-06T13:14:10;12.82;;;2.70;;
23282;SDS011;11810;51.178;3.878;2023-08-06T13:16:37;18.50;;;2.70;;
23282;SDS011;11810;51.178;3.878;2023-08-06T13:19:04;8.35;;;2.35;;
23282;SDS011;11810;51.178;3.878;2023-08-06T13:21:35;14.02;;;2.65;;
23282;SDS011;11810;51.178;3.878;2023-08-06T13:24:21;18.35;;;2.38;;
23282;SDS011;11810;51.178;3.878;2023-08-06T13:26:47;16.27;;;2.10;;
23282;SDS011;11810;51.178;3.878;2023-08-06T13:29:12;15.40;;;2.40;;
23282;SDS011;11810;51.178;3.878;2023-08-06T13:31:38;13.27;;;3.45;;
23282;SDS011;11810;51.178;3.878;2023-08-06T13:34:04;11.00;;;1.88;;
23282;SDS011;11810;51.178;3.878;2023-08-06T13:36:30;14.20;;;2.15;;
23282;SDS011;11810;51.178;3.878;2023-08-06T13:38:56;14.57;;;2.08;;
23282;SDS011;11810;51.178;3.878;2023-08-06T13:41:22;6.47;;;1.40;;
23282;SDS011;11810;51.178;3.878;2023-08-06T13:43:48;13.20;;;2.88;;
23282;SDS011;11810;51.178;3.878;2023-08-06T13:46:15;17.33;;;2.33;;
23282;SDS011;11810;51.178;3.878;2023-08-06T13:48:45;15.60;;;3.05;;
23282;SDS011;11810;51.178;3.878;2023-08-06T13:51:11;15.27;;;3.03;;
23282;SDS011;11810;51.178;3.878;2023-08-06T13:53:38;11.10;;;2.55;;
23282;SDS011;11810;51.178;3.878;2023-08-06T13:56:05;12.45;;;2.47;;
23282;SDS011;11810;51.178;3.878;2023-08-06T13:58:31;15.70;;;2.88;;
23282;SDS011;11810;51.178;3.878;2023-08-06T14:00:58;16.20;;;2.72;;
23282;SDS011;11810;51.178;3.878;2023-08-06T14:03:24;13.95;;;2.53;;
23282;SDS011;11810;51.178;3.878;2023-08-06T14:05:50;12.25;;;2.33;;
23282;SDS011;11810;51.178;3.878;2023-08-06T14:08:16;11.85;;;2.95;;
23282;SDS011;11810;51.178;3.878;2023-08-06T14:10:45;21.25;;;3.25;;
23282;SDS011;11810;51.178;3.878;2023-08-06T14:13:11;9.32;;;2.92;;
23282;SDS011;11810;51.178;3.878;2023-08-06T14:15:37;11.98;;;2.70;;
23282;SDS011;11810;51.178;3.878;2023-08-06T14:18:06;11.80;;;2.63;;
23282;SDS011;11810;51.178;3.878;2023-08-06T14:20:33;13.50;;;2.63;;
23282;SDS011;11810;51.178;3.878;2023-08-06T14:23:00;12.18;;;2.67;;
23282;SDS011;11810;51.178;3.878;2023-08-06T14:25:26;16.73;;;3.15;;
23282;SDS011;11810;51.178;3.878;2023-08-06T14:27:52;13.95;;;2.63;;
23282;SDS011;11810;51.178;3.878;2023-08-06T14:30:18;16.45;;;2.72;;
23282;SDS011;11810;51.178;3.878;2023-08-06T14:32:44;7.28;;;1.77;;
23282;SDS011;11810;51.178;3.878;2023-08-06T14:35:10;9.45;;;1.75;;
23282;SDS011;11810;51.178;3.878;2023-08-06T14:37:36;16.67;;;2.13;;
23282;SDS011;11810;51.178;3.878;2023-08-06T14:40:02;9.68;;;2.40;;
23282;SDS011;11810;51.178;3.878;2023-08-06T14:42:29;11.80;;;2.33;;
23282;SDS011;11810;51.178;3.878;2023-08-06T14:44:54;14.43;;;2.22;;
23282;SDS011;11810;51.178;3.878;2023-08-06T14:47:20;7.07;;;2.80;;
23282;SDS011;11810;51.178;3.878;2023-08-06T14:49:46;7.25;;;1.55;;
23282;SDS011;11810;51.178;3.878;2023-08-06T14:52:14;8.10;;;2.08;;
23282;SDS011;11810;51.178;3.878;2023-08-06T14:54:40;13.65;;;2.70;;